sensor_id;sensor_type;location;lat;lon;timestamp;P1;durP1;ratioP1;P2;durP2;ratioP2
49578;SDS011;35483;50.828;3.228;2023-02-08T00:01:52;59.58;;;40.55;;
49578;SDS011;35483;50.828;3.228;2023-02-08T00:04:18;52.30;;;38.17;;
49578;SDS011;35483;50.828;3.228;2023-02-08T00:06:44;54.15;;;38.50;;
49578;SDS011;35483;50.828;3.228;2023-02-08T00:09:10;51.22;;;38.00;;
49578;SDS011;35483;50.828;3.228;2023-02-08T00:11:36;50.60;;;37.40;;
49578;SDS011;35483;50.828;3.228;2023-02-08T00:14:01;51.20;;;38.75;;
49578;SDS011;35483;50.828;3.228;2023-02-08T00:16:27;53.50;;;37.65;;
49578;SDS011;35483;50.828;3.228;2023-02-08T00:18:53;54.20;;;39.20;;
49578;SDS011;35483;50.828;3.228;2023-02-08T00:21:20;51.47;;;37.58;;
49578;SDS011;35483;50.828;3.228;2023-02-08T00:23:47;53.58;;;37.33;;
49578;SDS011;35483;50.828;3.228;2023-02-08T00:26:13;53.47;;;37.17;;
49578;SDS011;35483;50.828;3.228;2023-02-08T00:28:40;52.05;;;38.35;;
49578;SDS011;35483;50.828;3.228;2023-02-08T00:31:06;60.47;;;40.13;;
49578;SDS011;35483;50.828;3.228;2023-02-08T00:33:32;53.55;;;37.97;;
49578;SDS011;35483;50.828;3.228;2023-02-08T00:35:58;49.63;;;36.17;;
49578;SDS011;35483;50.828;3.228;2023-02-08T00:38:29;52.97;;;37.17;;
49578;SDS011;35483;50.828;3.228;2023-02-08T00:40:55;48.78;;;35.95;;
49578;SDS011;35483;50.828;3.228;2023-02-08T00:43:20;52.60;;;37.60;;
49578;SDS011;35483;50.828;3.228;2023-02-08T00:45:46;50.70;;;36.58;;
49578;SDS011;35483;50.828;3.228;2023-02-08T00:48:12;55.40;;;36.97;;
49578;SDS011;35483;50.828;3.228;2023-02-08T00:50:38;53.72;;;37.72;;
49578;SDS011;35483;50.828;3.228;2023-02-08T00:53:05;56.13;;;37.38;;
49578;SDS011;35483;50.828;3.228;2023-02-08T00:55:30;51.03;;;36.05;;
49578;SDS011;35483;50.828;3.228;2023-02-08T00:57:56;50.58;;;35.45;;
49578;SDS011;35483;50.828;3.228;2023-02-08T01:00:22;53.13;;;37.95;;
49578;SDS011;35483;50.828;3.228;2023-02-08T01:02:47;53.90;;;36.72;;
49578;SDS011;35483;50.828;3.228;2023-02-08T01:05:13;48.90;;;37.03;;
49578;SDS011;35483;50.828;3.228;2023-02-08T01:07:39;50.35;;;36.90;;
49578;SDS011;35483;50.828;3.228;2023-02-08T01:10:05;48.78;;;36.17;;
49578;SDS011;35483;50.828;3.228;2023-02-08T01:12:36;52.97;;;36.58;;
49578;SDS011;35483;50.828;3.228;2023-02-08T01:15:02;47.72;;;35.90;;
49578;SDS011;35483;50.828;3.228;2023-02-08T01:17:29;50.65;;;37.08;;
49578;SDS011;35483;50.828;3.228;2023-02-08T01:19:55;49.28;;;37.28;;
49578;SDS011;35483;50.828;3.228;2023-02-08T01:22:21;51.03;;;35.60;;
49578;SDS011;35483;50.828;3.228;2023-02-08T01:24:47;54.30;;;35.60;;
49578;SDS011;35483;50.828;3.228;2023-02-08T01:27:12;44.72;;;34.10;;
49578;SDS011;35483;50.828;3.228;2023-02-08T01:29:40;50.63;;;35.42;;
49578;SDS011;35483;50.828;3.228;2023-02-08T01:32:05;48.65;;;35.45;;
49578;SDS011;35483;50.828;3.228;2023-02-08T01:34:31;56.50;;;35.72;;
49578;SDS011;35483;50.828;3.228;2023-02-08T01:36:57;51.50;;;36.17;;
49578;SDS011;35483;50.828;3.228;2023-02-08T01:39:23;52.15;;;35.53;;
49578;SDS011;35483;50.828;3.228;2023-02-08T01:41:49;51.80;;;38.15;;
49578;SDS011;35483;50.828;3.228;2023-02-08T01:46:43;50.13;;;36.13;;
49578;SDS011;35483;50.828;3.228;2023-02-08T01:49:22;52.38;;;36.45;;
49578;SDS011;35483;50.828;3.228;2023-02-08T01:54:39;48.38;;;35.65;;
49578;SDS011;35483;50.828;3.228;2023-02-08T01:57:11;49.30;;;35.58;;
49578;SDS011;35483;50.828;3.228;2023-02-08T01:59:39;48.58;;;36.00;;
49578;SDS011;35483;50.828;3.228;2023-02-08T02:02:09;52.65;;;35.17;;
49578;SDS011;35483;50.828;3.228;2023-02-08T02:04:38;49.10;;;34.78;;
49578;SDS011;35483;50.828;3.228;2023-02-08T02:07:05;46.97;;;34.83;;
49578;SDS011;35483;50.828;3.228;2023-02-08T02:09:50;48.22;;;34.97;;
49578;SDS011;35483;50.828;3.228;2023-02-08T02:12:20;46.17;;;35.20;;
49578;SDS011;35483;50.828;3.228;2023-02-08T02:14:47;50.33;;;33.55;;
49578;SDS011;35483;50.828;3.228;2023-02-08T02:17:14;43.35;;;31.40;;
49578;SDS011;35483;50.828;3.228;2023-02-08T02:19:54;48.17;;;33.45;;
49578;SDS011;35483;50.828;3.228;2023-02-08T02:28:04;51.50;;;32.97;;
49578;SDS011;35483;50.828;3.228;2023-02-08T02:30:57;46.63;;;32.83;;
49578;SDS011;35483;50.828;3.228;2023-02-08T02:45:30;48.03;;;32.90;;
49578;SDS011;35483;50.828;3.228;2023-02-08T02:48:09;47.67;;;33.55;;
49578;SDS011;35483;50.828;3.228;2023-02-08T02:50:42;49.30;;;34.28;;
49578;SDS011;35483;50.828;3.228;2023-02-08T02:56:23;42.65;;;31.80;;
49578;SDS011;35483;50.828;3.228;2023-02-08T02:58:55;46.10;;;32.88;;
49578;SDS011;35483;50.828;3.228;2023-02-08T03:01:23;46.38;;;32.17;;
49578;SDS011;35483;50.828;3.228;2023-02-08T03:03:54;47.65;;;33.63;;
49578;SDS011;35483;50.828;3.228;2023-02-08T03:06:43;41.92;;;32.42;;
49578;SDS011;35483;50.828;3.228;2023-02-08T03:12:04;47.47;;;33.70;;
49578;SDS011;35483;50.828;3.228;2023-02-08T03:14:33;45.70;;;32.88;;
49578;SDS011;35483;50.828;3.228;2023-02-08T03:17:32;47.50;;;32.80;;
49578;SDS011;35483;50.828;3.228;2023-02-08T03:20:25;47.33;;;32.08;;
49578;SDS011;35483;50.828;3.228;2023-02-08T03:23:00;42.22;;;30.42;;
49578;SDS011;35483;50.828;3.228;2023-02-08T03:33:47;45.42;;;31.60;;
49578;SDS011;35483;50.828;3.228;2023-02-08T03:36:29;45.72;;;31.92;;
49578;SDS011;35483;50.828;3.228;2023-02-08T03:38:59;45.28;;;30.92;;
49578;SDS011;35483;50.828;3.228;2023-02-08T03:41:33;45.05;;;32.53;;
49578;SDS011;35483;50.828;3.228;2023-02-08T03:44:04;44.03;;;31.05;;
49578;SDS011;35483;50.828;3.228;2023-02-08T03:46:36;44.63;;;32.00;;
49578;SDS011;35483;50.828;3.228;2023-02-08T03:49:17;45.65;;;33.13;;
49578;SDS011;35483;50.828;3.228;2023-02-08T03:51:47;44.75;;;31.33;;
49578;SDS011;35483;50.828;3.228;2023-02-08T03:54:16;44.15;;;31.88;;
49578;SDS011;35483;50.828;3.228;2023-02-08T03:56:53;41.67;;;32.05;;
49578;SDS011;35483;50.828;3.228;2023-02-08T03:59:24;40.17;;;31.77;;
49578;SDS011;35483;50.828;3.228;2023-02-08T04:02:00;42.25;;;31.25;;
49578;SDS011;35483;50.828;3.228;2023-02-08T04:04:28;42.45;;;31.60;;
49578;SDS011;35483;50.828;3.228;2023-02-08T04:06:58;46.13;;;32.67;;
49578;SDS011;35483;50.828;3.228;2023-02-08T04:09:24;44.85;;;32.17;;
49578;SDS011;35483;50.828;3.228;2023-02-08T04:11:49;41.25;;;31.50;;
49578;SDS011;35483;50.828;3.228;2023-02-08T04:14:16;42.95;;;31.17;;
49578;SDS011;35483;50.828;3.228;2023-02-08T04:16:41;42.20;;;32.05;;
49578;SDS011;35483;50.828;3.228;2023-02-08T04:19:07;47.08;;;33.10;;
49578;SDS011;35483;50.828;3.228;2023-02-08T04:21:33;47.13;;;32.42;;
49578;SDS011;35483;50.828;3.228;2023-02-08T04:23:58;43.20;;;32.22;;
49578;SDS011;35483;50.828;3.228;2023-02-08T04:26:24;44.63;;;31.05;;
49578;SDS011;35483;50.828;3.228;2023-02-08T04:28:50;42.67;;;31.58;;
49578;SDS011;35483;50.828;3.228;2023-02-08T04:31:16;42.47;;;31.52;;
49578;SDS011;35483;50.828;3.228;2023-02-08T04:33:42;40.47;;;31.58;;
49578;SDS011;35483;50.828;3.228;2023-02-08T04:36:07;44.95;;;33.25;;
49578;SDS011;35483;50.828;3.228;2023-02-08T04:38:33;50.33;;;34.10;;
49578;SDS011;35483;50.828;3.228;2023-02-08T04:40:59;43.42;;;32.55;;
49578;SDS011;35483;50.828;3.228;2023-02-08T04:43:25;48.45;;;32.10;;
49578;SDS011;35483;50.828;3.228;2023-02-08T04:45:51;46.92;;;32.38;;
49578;SDS011;35483;50.828;3.228;2023-02-08T04:48:17;47.15;;;33.30;;
49578;SDS011;35483;50.828;3.228;2023-02-08T04:50:43;49.65;;;33.83;;
49578;SDS011;35483;50.828;3.228;2023-02-08T04:53:09;44.15;;;32.95;;
49578;SDS011;35483;50.828;3.228;2023-02-08T04:55:34;47.17;;;33.38;;
49578;SDS011;35483;50.828;3.228;2023-02-08T04:58:00;44.08;;;31.70;;
49578;SDS011;35483;50.828;3.228;2023-02-08T05:00:26;46.17;;;32.00;;
49578;SDS011;35483;50.828;3.228;2023-02-08T05:02:55;50.47;;;34.10;;
49578;SDS011;35483;50.828;3.228;2023-02-08T05:05:23;44.72;;;33.47;;
49578;SDS011;35483;50.828;3.228;2023-02-08T05:07:52;43.50;;;31.08;;
49578;SDS011;35483;50.828;3.228;2023-02-08T05:10:18;45.38;;;31.67;;
49578;SDS011;35483;50.828;3.228;2023-02-08T05:12:43;39.55;;;29.60;;
49578;SDS011;35483;50.828;3.228;2023-02-08T05:15:09;46.13;;;32.17;;
49578;SDS011;35483;50.828;3.228;2023-02-08T05:17:35;48.58;;;32.53;;
49578;SDS011;35483;50.828;3.228;2023-02-08T05:20:02;42.38;;;30.35;;
49578;SDS011;35483;50.828;3.228;2023-02-08T05:22:30;44.00;;;31.50;;
49578;SDS011;35483;50.828;3.228;2023-02-08T05:24:57;44.15;;;31.45;;
49578;SDS011;35483;50.828;3.228;2023-02-08T05:27:22;44.28;;;32.60;;
49578;SDS011;35483;50.828;3.228;2023-02-08T05:29:50;45.95;;;32.63;;
49578;SDS011;35483;50.828;3.228;2023-02-08T05:32:16;42.65;;;30.38;;
49578;SDS011;35483;50.828;3.228;2023-02-08T05:34:42;41.55;;;32.63;;
49578;SDS011;35483;50.828;3.228;2023-02-08T05:37:08;46.20;;;32.88;;
49578;SDS011;35483;50.828;3.228;2023-02-08T05:39:34;47.47;;;31.83;;
49578;SDS011;35483;50.828;3.228;2023-02-08T05:41:59;46.05;;;33.67;;
49578;SDS011;35483;50.828;3.228;2023-02-08T05:44:25;43.20;;;31.23;;
49578;SDS011;35483;50.828;3.228;2023-02-08T05:46:51;43.42;;;31.50;;
49578;SDS011;35483;50.828;3.228;2023-02-08T05:49:17;49.97;;;33.20;;
49578;SDS011;35483;50.828;3.228;2023-02-08T05:51:42;45.50;;;31.65;;
49578;SDS011;35483;50.828;3.228;2023-02-08T05:54:08;40.88;;;30.02;;
49578;SDS011;35483;50.828;3.228;2023-02-08T05:56:34;43.72;;;30.90;;
49578;SDS011;35483;50.828;3.228;2023-02-08T05:59:00;42.03;;;31.83;;
49578;SDS011;35483;50.828;3.228;2023-02-08T06:01:26;42.67;;;30.98;;
49578;SDS011;35483;50.828;3.228;2023-02-08T06:03:52;44.30;;;31.55;;
49578;SDS011;35483;50.828;3.228;2023-02-08T06:06:19;40.17;;;30.23;;
49578;SDS011;35483;50.828;3.228;2023-02-08T06:08:45;43.35;;;31.65;;
49578;SDS011;35483;50.828;3.228;2023-02-08T06:11:10;45.63;;;31.88;;
49578;SDS011;35483;50.828;3.228;2023-02-08T06:13:36;47.28;;;32.08;;
49578;SDS011;35483;50.828;3.228;2023-02-08T06:16:03;45.08;;;33.13;;
49578;SDS011;35483;50.828;3.228;2023-02-08T06:18:30;51.15;;;34.20;;
49578;SDS011;35483;50.828;3.228;2023-02-08T06:20:56;48.03;;;33.45;;
49578;SDS011;35483;50.828;3.228;2023-02-08T06:23:22;43.45;;;31.75;;
49578;SDS011;35483;50.828;3.228;2023-02-08T06:25:48;43.13;;;31.02;;
49578;SDS011;35483;50.828;3.228;2023-02-08T06:28:14;48.90;;;31.95;;
49578;SDS011;35483;50.828;3.228;2023-02-08T06:30:41;43.30;;;32.13;;
49578;SDS011;35483;50.828;3.228;2023-02-08T06:33:07;44.40;;;31.90;;
49578;SDS011;35483;50.828;3.228;2023-02-08T06:35:33;45.17;;;32.25;;
49578;SDS011;35483;50.828;3.228;2023-02-08T06:37:58;46.35;;;32.00;;
49578;SDS011;35483;50.828;3.228;2023-02-08T06:40:26;47.20;;;32.53;;
49578;SDS011;35483;50.828;3.228;2023-02-08T06:42:51;45.10;;;31.23;;
49578;SDS011;35483;50.828;3.228;2023-02-08T06:45:17;45.67;;;31.52;;
49578;SDS011;35483;50.828;3.228;2023-02-08T06:47:43;46.63;;;33.08;;
49578;SDS011;35483;50.828;3.228;2023-02-08T06:50:09;50.10;;;34.38;;
49578;SDS011;35483;50.828;3.228;2023-02-08T06:52:35;45.67;;;32.90;;
49578;SDS011;35483;50.828;3.228;2023-02-08T06:55:01;48.10;;;34.75;;
49578;SDS011;35483;50.828;3.228;2023-02-08T06:57:27;45.17;;;32.67;;
49578;SDS011;35483;50.828;3.228;2023-02-08T06:59:52;48.70;;;34.83;;
49578;SDS011;35483;50.828;3.228;2023-02-08T07:02:19;49.90;;;36.53;;
49578;SDS011;35483;50.828;3.228;2023-02-08T07:04:45;50.20;;;35.05;;
49578;SDS011;35483;50.828;3.228;2023-02-08T07:07:11;47.55;;;34.17;;
49578;SDS011;35483;50.828;3.228;2023-02-08T07:09:39;48.28;;;35.17;;
49578;SDS011;35483;50.828;3.228;2023-02-08T07:12:06;46.53;;;34.17;;
49578;SDS011;35483;50.828;3.228;2023-02-08T07:14:32;49.22;;;34.28;;
49578;SDS011;35483;50.828;3.228;2023-02-08T07:17:00;46.95;;;33.22;;
49578;SDS011;35483;50.828;3.228;2023-02-08T07:19:26;44.85;;;34.08;;
49578;SDS011;35483;50.828;3.228;2023-02-08T07:21:52;44.80;;;35.80;;
49578;SDS011;35483;50.828;3.228;2023-02-08T07:24:18;46.55;;;35.10;;
49578;SDS011;35483;50.828;3.228;2023-02-08T07:26:44;47.88;;;35.88;;
49578;SDS011;35483;50.828;3.228;2023-02-08T07:29:10;46.33;;;34.28;;
49578;SDS011;35483;50.828;3.228;2023-02-08T07:31:36;49.03;;;38.30;;
49578;SDS011;35483;50.828;3.228;2023-02-08T07:34:02;52.28;;;39.10;;
49578;SDS011;35483;50.828;3.228;2023-02-08T07:36:28;54.60;;;41.17;;
49578;SDS011;35483;50.828;3.228;2023-02-08T07:38:54;54.03;;;39.22;;
49578;SDS011;35483;50.828;3.228;2023-02-08T07:41:19;50.45;;;37.03;;
49578;SDS011;35483;50.828;3.228;2023-02-08T07:43:45;53.95;;;38.47;;
49578;SDS011;35483;50.828;3.228;2023-02-08T07:46:12;45.03;;;36.42;;
49578;SDS011;35483;50.828;3.228;2023-02-08T07:48:41;53.67;;;39.22;;
49578;SDS011;35483;50.828;3.228;2023-02-08T07:51:07;51.65;;;38.55;;
49578;SDS011;35483;50.828;3.228;2023-02-08T07:53:33;46.33;;;35.13;;
49578;SDS011;35483;50.828;3.228;2023-02-08T07:55:59;48.47;;;35.60;;
49578;SDS011;35483;50.828;3.228;2023-02-08T07:58:25;51.28;;;39.83;;
49578;SDS011;35483;50.828;3.228;2023-02-08T08:00:51;46.25;;;36.10;;
49578;SDS011;35483;50.828;3.228;2023-02-08T08:03:17;48.10;;;36.70;;
49578;SDS011;35483;50.828;3.228;2023-02-08T08:05:43;52.10;;;37.95;;
49578;SDS011;35483;50.828;3.228;2023-02-08T08:08:09;55.45;;;39.25;;
49578;SDS011;35483;50.828;3.228;2023-02-08T08:10:36;56.15;;;40.30;;
49578;SDS011;35483;50.828;3.228;2023-02-08T08:13:02;51.08;;;36.97;;
49578;SDS011;35483;50.828;3.228;2023-02-08T08:15:28;50.38;;;37.55;;
49578;SDS011;35483;50.828;3.228;2023-02-08T08:17:54;49.92;;;38.28;;
49578;SDS011;35483;50.828;3.228;2023-02-08T08:20:20;57.03;;;40.42;;
49578;SDS011;35483;50.828;3.228;2023-02-08T08:22:46;51.45;;;39.10;;
49578;SDS011;35483;50.828;3.228;2023-02-08T08:25:13;56.97;;;42.80;;
49578;SDS011;35483;50.828;3.228;2023-02-08T08:27:39;55.90;;;41.92;;
49578;SDS011;35483;50.828;3.228;2023-02-08T08:30:06;57.03;;;43.42;;
49578;SDS011;35483;50.828;3.228;2023-02-08T08:32:33;57.70;;;45.17;;
49578;SDS011;35483;50.828;3.228;2023-02-08T08:34:59;66.82;;;46.22;;
49578;SDS011;35483;50.828;3.228;2023-02-08T08:37:24;69.20;;;48.92;;
49578;SDS011;35483;50.828;3.228;2023-02-08T08:39:50;65.70;;;45.13;;
49578;SDS011;35483;50.828;3.228;2023-02-08T08:42:16;62.88;;;42.40;;
49578;SDS011;35483;50.828;3.228;2023-02-08T08:44:41;55.58;;;43.20;;
49578;SDS011;35483;50.828;3.228;2023-02-08T08:47:08;60.47;;;45.25;;
49578;SDS011;35483;50.828;3.228;2023-02-08T08:49:34;71.78;;;44.63;;
49578;SDS011;35483;50.828;3.228;2023-02-08T08:52:00;60.05;;;44.83;;
49578;SDS011;35483;50.828;3.228;2023-02-08T08:54:25;58.30;;;42.88;;
49578;SDS011;35483;50.828;3.228;2023-02-08T08:56:51;53.67;;;42.10;;
49578;SDS011;35483;50.828;3.228;2023-02-08T08:59:17;67.03;;;46.97;;
49578;SDS011;35483;50.828;3.228;2023-02-08T09:01:43;57.38;;;43.00;;
49578;SDS011;35483;50.828;3.228;2023-02-08T09:04:09;55.83;;;40.45;;
49578;SDS011;35483;50.828;3.228;2023-02-08T09:06:35;48.78;;;37.13;;
49578;SDS011;35483;50.828;3.228;2023-02-08T09:09:01;48.90;;;35.22;;
49578;SDS011;35483;50.828;3.228;2023-02-08T09:11:27;42.78;;;31.55;;
49578;SDS011;35483;50.828;3.228;2023-02-08T09:13:53;36.78;;;29.05;;
49578;SDS011;35483;50.828;3.228;2023-02-08T09:16:21;34.88;;;26.90;;
49578;SDS011;35483;50.828;3.228;2023-02-08T09:18:47;33.53;;;26.40;;
49578;SDS011;35483;50.828;3.228;2023-02-08T09:21:14;38.15;;;26.67;;
49578;SDS011;35483;50.828;3.228;2023-02-08T09:23:42;35.72;;;25.92;;
49578;SDS011;35483;50.828;3.228;2023-02-08T09:26:11;29.98;;;23.70;;
49578;SDS011;35483;50.828;3.228;2023-02-08T09:28:39;28.95;;;21.70;;
49578;SDS011;35483;50.828;3.228;2023-02-08T09:31:09;24.08;;;19.98;;
49578;SDS011;35483;50.828;3.228;2023-02-08T09:33:35;27.02;;;19.02;;
49578;SDS011;35483;50.828;3.228;2023-02-08T09:36:01;22.95;;;18.42;;
49578;SDS011;35483;50.828;3.228;2023-02-08T09:38:28;23.35;;;18.95;;
49578;SDS011;35483;50.828;3.228;2023-02-08T09:41:02;24.50;;;17.75;;
49578;SDS011;35483;50.828;3.228;2023-02-08T09:46:55;24.05;;;16.10;;
49578;SDS011;35483;50.828;3.228;2023-02-08T09:49:30;20.65;;;16.23;;
49578;SDS011;35483;50.828;3.228;2023-02-08T09:52:15;24.70;;;16.92;;
49578;SDS011;35483;50.828;3.228;2023-02-08T09:54:49;24.65;;;16.98;;
49578;SDS011;35483;50.828;3.228;2023-02-08T09:57:20;21.48;;;15.55;;
49578;SDS011;35483;50.828;3.228;2023-02-08T09:59:57;20.33;;;14.25;;
49578;SDS011;35483;50.828;3.228;2023-02-08T10:02:28;24.80;;;16.00;;
49578;SDS011;35483;50.828;3.228;2023-02-08T10:07:36;17.95;;;13.40;;
49578;SDS011;35483;50.828;3.228;2023-02-08T10:10:04;18.45;;;13.38;;
49578;SDS011;35483;50.828;3.228;2023-02-08T10:26:36;16.35;;;12.10;;
49578;SDS011;35483;50.828;3.228;2023-02-08T10:37:23;18.25;;;12.45;;
49578;SDS011;35483;50.828;3.228;2023-02-08T10:39:56;15.02;;;11.20;;
49578;SDS011;35483;50.828;3.228;2023-02-08T10:42:32;14.13;;;10.43;;
49578;SDS011;35483;50.828;3.228;2023-02-08T10:45:12;13.02;;;10.30;;
49578;SDS011;35483;50.828;3.228;2023-02-08T10:47:54;10.65;;;9.45;;
49578;SDS011;35483;50.828;3.228;2023-02-08T10:50:30;11.35;;;8.85;;
49578;SDS011;35483;50.828;3.228;2023-02-08T10:53:00;10.95;;;9.10;;
49578;SDS011;35483;50.828;3.228;2023-02-08T10:55:28;15.55;;;11.15;;
49578;SDS011;35483;50.828;3.228;2023-02-08T10:57:59;15.18;;;12.30;;
49578;SDS011;35483;50.828;3.228;2023-02-08T11:00:29;13.25;;;10.57;;
49578;SDS011;35483;50.828;3.228;2023-02-08T11:02:59;18.00;;;11.02;;
49578;SDS011;35483;50.828;3.228;2023-02-08T11:05:34;12.98;;;10.77;;
49578;SDS011;35483;50.828;3.228;2023-02-08T11:08:05;12.15;;;9.70;;
49578;SDS011;35483;50.828;3.228;2023-02-08T11:10:32;12.88;;;10.25;;
49578;SDS011;35483;50.828;3.228;2023-02-08T11:13:02;13.02;;;10.88;;
49578;SDS011;35483;50.828;3.228;2023-02-08T11:15:59;11.68;;;10.18;;
49578;SDS011;35483;50.828;3.228;2023-02-08T11:18:40;12.25;;;10.05;;
49578;SDS011;35483;50.828;3.228;2023-02-08T11:21:23;11.93;;;9.18;;
49578;SDS011;35483;50.828;3.228;2023-02-08T11:23:54;11.93;;;9.30;;
49578;SDS011;35483;50.828;3.228;2023-02-08T11:26:22;10.20;;;8.63;;
49578;SDS011;35483;50.828;3.228;2023-02-08T11:28:58;11.43;;;9.27;;
49578;SDS011;35483;50.828;3.228;2023-02-08T11:31:27;10.70;;;8.25;;
49578;SDS011;35483;50.828;3.228;2023-02-08T11:36:22;11.32;;;9.43;;
49578;SDS011;35483;50.828;3.228;2023-02-08T11:38:48;11.27;;;8.50;;
49578;SDS011;35483;50.828;3.228;2023-02-08T11:41:15;11.00;;;7.85;;
49578;SDS011;35483;50.828;3.228;2023-02-08T11:43:43;9.45;;;7.82;;
49578;SDS011;35483;50.828;3.228;2023-02-08T11:46:24;11.90;;;8.25;;
49578;SDS011;35483;50.828;3.228;2023-02-08T11:48:52;9.63;;;7.07;;
49578;SDS011;35483;50.828;3.228;2023-02-08T11:51:24;8.85;;;7.32;;
49578;SDS011;35483;50.828;3.228;2023-02-08T11:53:53;8.10;;;6.93;;
49578;SDS011;35483;50.828;3.228;2023-02-08T11:56:20;7.32;;;6.45;;
49578;SDS011;35483;50.828;3.228;2023-02-08T11:58:57;9.85;;;6.95;;
49578;SDS011;35483;50.828;3.228;2023-02-08T12:01:29;9.77;;;7.30;;
49578;SDS011;35483;50.828;3.228;2023-02-08T12:04:03;7.25;;;6.50;;
49578;SDS011;35483;50.828;3.228;2023-02-08T12:15:15;8.73;;;5.88;;
49578;SDS011;35483;50.828;3.228;2023-02-08T12:18:12;9.60;;;6.53;;
49578;SDS011;35483;50.828;3.228;2023-02-08T12:21:06;15.68;;;8.00;;
49578;SDS011;35483;50.828;3.228;2023-02-08T12:26:19;7.28;;;5.97;;
49578;SDS011;35483;50.828;3.228;2023-02-08T12:29:00;8.63;;;6.43;;
49578;SDS011;35483;50.828;3.228;2023-02-08T12:40:22;9.40;;;6.55;;
49578;SDS011;35483;50.828;3.228;2023-02-08T12:43:26;9.25;;;5.95;;
49578;SDS011;35483;50.828;3.228;2023-02-08T12:48:47;5.90;;;5.07;;
49578;SDS011;35483;50.828;3.228;2023-02-08T12:51:53;8.00;;;5.70;;
49578;SDS011;35483;50.828;3.228;2023-02-08T12:54:45;7.18;;;5.22;;
49578;SDS011;35483;50.828;3.228;2023-02-08T12:57:17;6.63;;;5.20;;
49578;SDS011;35483;50.828;3.228;2023-02-08T12:59:47;6.68;;;5.55;;
49578;SDS011;35483;50.828;3.228;2023-02-08T13:02:22;7.68;;;6.28;;
49578;SDS011;35483;50.828;3.228;2023-02-08T13:04:54;9.43;;;5.70;;
49578;SDS011;35483;50.828;3.228;2023-02-08T13:10:05;8.05;;;6.03;;
49578;SDS011;35483;50.828;3.228;2023-02-08T13:12:48;6.40;;;5.47;;
49578;SDS011;35483;50.828;3.228;2023-02-08T13:17:49;11.48;;;5.72;;
49578;SDS011;35483;50.828;3.228;2023-02-08T13:31:23;8.85;;;6.07;;
49578;SDS011;35483;50.828;3.228;2023-02-08T13:36:52;8.15;;;5.53;;
49578;SDS011;35483;50.828;3.228;2023-02-08T13:39:43;7.05;;;5.70;;
49578;SDS011;35483;50.828;3.228;2023-02-08T13:44:54;6.10;;;5.47;;
49578;SDS011;35483;50.828;3.228;2023-02-08T13:47:29;9.80;;;5.55;;
49578;SDS011;35483;50.828;3.228;2023-02-08T13:50:04;9.70;;;5.88;;
49578;SDS011;35483;50.828;3.228;2023-02-08T14:05:53;13.05;;;6.10;;
49578;SDS011;35483;50.828;3.228;2023-02-08T14:08:31;8.88;;;5.60;;
49578;SDS011;35483;50.828;3.228;2023-02-08T14:14:12;7.15;;;5.32;;
49578;SDS011;35483;50.828;3.228;2023-02-08T14:22:00;6.15;;;5.55;;
49578;SDS011;35483;50.828;3.228;2023-02-08T14:24:30;9.07;;;5.38;;
49578;SDS011;35483;50.828;3.228;2023-02-08T14:35:38;7.38;;;4.88;;
49578;SDS011;35483;50.828;3.228;2023-02-08T14:41:02;9.32;;;5.32;;
49578;SDS011;35483;50.828;3.228;2023-02-08T14:43:40;10.40;;;5.40;;
49578;SDS011;35483;50.828;3.228;2023-02-08T14:49:16;10.90;;;5.70;;
49578;SDS011;35483;50.828;3.228;2023-02-08T14:51:49;11.00;;;6.65;;
49578;SDS011;35483;50.828;3.228;2023-02-08T14:54:26;9.57;;;5.25;;
49578;SDS011;35483;50.828;3.228;2023-02-08T14:56:59;9.73;;;6.10;;
49578;SDS011;35483;50.828;3.228;2023-02-08T14:59:29;21.92;;;10.88;;
49578;SDS011;35483;50.828;3.228;2023-02-08T15:02:43;12.07;;;5.03;;
49578;SDS011;35483;50.828;3.228;2023-02-08T15:04:47;12.95;;;5.65;;
49578;SDS011;35483;50.828;3.228;2023-02-08T15:07:30;11.70;;;6.22;;
49578;SDS011;35483;50.828;3.228;2023-02-08T15:10:09;7.10;;;4.78;;
49578;SDS011;35483;50.828;3.228;2023-02-08T15:12:42;8.48;;;5.03;;
49578;SDS011;35483;50.828;3.228;2023-02-08T15:15:30;7.72;;;5.22;;
49578;SDS011;35483;50.828;3.228;2023-02-08T15:20:32;9.68;;;5.40;;
49578;SDS011;35483;50.828;3.228;2023-02-08T15:23:03;6.90;;;4.85;;
49578;SDS011;35483;50.828;3.228;2023-02-08T15:25:53;12.23;;;5.30;;
49578;SDS011;35483;50.828;3.228;2023-02-08T15:28:24;10.20;;;5.43;;
49578;SDS011;35483;50.828;3.228;2023-02-08T15:31:08;9.25;;;5.15;;
49578;SDS011;35483;50.828;3.228;2023-02-08T15:33:40;8.45;;;6.22;;
49578;SDS011;35483;50.828;3.228;2023-02-08T15:36:21;8.00;;;5.10;;
49578;SDS011;35483;50.828;3.228;2023-02-08T15:38:56;9.82;;;5.03;;
49578;SDS011;35483;50.828;3.228;2023-02-08T15:41:26;10.23;;;5.95;;
49578;SDS011;35483;50.828;3.228;2023-02-08T15:46:52;7.03;;;5.23;;
49578;SDS011;35483;50.828;3.228;2023-02-08T15:49:24;11.73;;;6.10;;
49578;SDS011;35483;50.828;3.228;2023-02-08T15:51:56;7.85;;;5.65;;
49578;SDS011;35483;50.828;3.228;2023-02-08T15:54:25;13.90;;;6.55;;
49578;SDS011;35483;50.828;3.228;2023-02-08T16:02:59;9.95;;;6.82;;
49578;SDS011;35483;50.828;3.228;2023-02-08T16:06:03;10.20;;;6.78;;
49578;SDS011;35483;50.828;3.228;2023-02-08T16:13:56;7.78;;;6.60;;
49578;SDS011;35483;50.828;3.228;2023-02-08T16:16:25;8.82;;;6.47;;
49578;SDS011;35483;50.828;3.228;2023-02-08T16:21:52;8.93;;;7.10;;
49578;SDS011;35483;50.828;3.228;2023-02-08T16:24:22;9.70;;;5.93;;
49578;SDS011;35483;50.828;3.228;2023-02-08T16:27:04;10.15;;;6.60;;
49578;SDS011;35483;50.828;3.228;2023-02-08T16:29:44;9.93;;;6.72;;
49578;SDS011;35483;50.828;3.228;2023-02-08T16:34:56;14.13;;;8.77;;
49578;SDS011;35483;50.828;3.228;2023-02-08T16:37:28;11.60;;;7.75;;
49578;SDS011;35483;50.828;3.228;2023-02-08T16:40:01;8.85;;;6.30;;
49578;SDS011;35483;50.828;3.228;2023-02-08T16:42:48;7.90;;;6.40;;
49578;SDS011;35483;50.828;3.228;2023-02-08T16:47:55;13.80;;;8.98;;
49578;SDS011;35483;50.828;3.228;2023-02-08T16:50:25;14.95;;;9.02;;
49578;SDS011;35483;50.828;3.228;2023-02-08T16:52:57;16.02;;;10.70;;
49578;SDS011;35483;50.828;3.228;2023-02-08T16:55:29;13.20;;;9.20;;
49578;SDS011;35483;50.828;3.228;2023-02-08T16:57:56;15.05;;;9.00;;
49578;SDS011;35483;50.828;3.228;2023-02-08T17:00:31;11.48;;;8.65;;
49578;SDS011;35483;50.828;3.228;2023-02-08T17:03:00;13.90;;;9.65;;
49578;SDS011;35483;50.828;3.228;2023-02-08T17:05:27;14.50;;;10.10;;
49578;SDS011;35483;50.828;3.228;2023-02-08T17:10:30;13.63;;;11.32;;
49578;SDS011;35483;50.828;3.228;2023-02-08T17:12:58;15.98;;;12.15;;
49578;SDS011;35483;50.828;3.228;2023-02-08T17:15:26;13.13;;;11.73;;
49578;SDS011;35483;50.828;3.228;2023-02-08T17:17:53;16.70;;;12.18;;
49578;SDS011;35483;50.828;3.228;2023-02-08T17:22:55;19.13;;;11.48;;
49578;SDS011;35483;50.828;3.228;2023-02-08T17:27:54;16.48;;;12.05;;
49578;SDS011;35483;50.828;3.228;2023-02-08T17:30:24;13.95;;;12.45;;
49578;SDS011;35483;50.828;3.228;2023-02-08T17:32:53;16.88;;;14.60;;
49578;SDS011;35483;50.828;3.228;2023-02-08T17:35:21;18.10;;;13.77;;
49578;SDS011;35483;50.828;3.228;2023-02-08T17:37:51;13.75;;;11.32;;
49578;SDS011;35483;50.828;3.228;2023-02-08T17:40:17;13.30;;;11.55;;
49578;SDS011;35483;50.828;3.228;2023-02-08T17:42:45;13.95;;;10.55;;
49578;SDS011;35483;50.828;3.228;2023-02-08T17:47:40;12.40;;;10.18;;